Alisal, California
Current Conditions -  °F | °C
As of 8:53 AM on Monday 22 Dec 2014 (Local Time) from KSNS Reporting Station
Haze Haze  
Wind Chill: 16°   Ceiling: 1900
Heat Index: 16°   Visibility: 6mi
Dew Point: 14°   Wind: 7mph
Humidity: 90%   Direction: 260°W
Pressure: 30.25"   Gusts: NA
Location:  36.6786°N, 121.613°W
Report Text: KSNS 221653Z 26006KT 6SM BR OVC019 16/14 A3025 RMK AO2 SLP253 T01560139
Loading
Personal Weather Stations






























Interactive Weather Map New forecast layout! Learn more

10-Day Weather Forecast

Advertisements
Track Severe Weather on mobile